Time;durP1;ratioP1;P1;durP2;ratioP2;P2;SDS_P1;SDS_P2;PMS_P1;PMS_P2;Temp;Humidity;BMP_temperature;BMP_pressure;BME280_temperature;BME280_humidity;BME280_pressure;Samples;Min_cycle;Max_cycle;Signal;HPM_P1;HPM_P2
2022/05/04 00:01:46;;;;;;;14.65;9.60;;;14.50;99.90;;;;;;5124178;27;20035;-66
2022/05/04 00:04:12;;;;;;;13.52;9.43;;;14.50;99.90;;;;;;5110973;27;20133;-66
2022/05/04 00:06:38;;;;;;;15.15;10.18;;;14.70;99.90;;;;;;5108413;27;20020;-65
2022/05/04 00:09:04;;;;;;;14.07;9.80;;;14.70;99.90;;;;;;5108401;27;20031;-66
2022/05/04 00:11:30;;;;;;;15.27;10.27;;;14.60;99.90;;;;;;5105228;27;20036;-66
2022/05/04 00:13:56;;;;;;;14.32;10.27;;;14.60;99.90;;;;;;5111522;27;20026;-66
2022/05/04 00:16:21;;;;;;;14.32;10.57;;;14.60;99.90;;;;;;5108102;27;20037;-65
2022/05/04 00:18:47;;;;;;;13.02;10.75;;;14.60;99.90;;;;;;5109165;27;20031;-65
2022/05/04 00:21:13;;;;;;;16.08;11.30;;;14.40;99.90;;;;;;5109390;27;20139;-67
2022/05/04 00:23:39;;;;;;;18.05;10.57;;;14.30;99.90;;;;;;5125629;27;20031;-66
2022/05/04 00:26:05;;;;;;;15.15;10.75;;;14.30;99.90;;;;;;5117195;27;20019;-67
2022/05/04 00:28:31;;;;;;;14.98;10.65;;;14.40;99.90;;;;;;5110521;28;20028;-67
2022/05/04 00:30:56;;;;;;;21.90;11.60;;;14.40;99.90;;;;;;5109722;28;20040;-67
2022/05/04 00:33:22;;;;;;;15.18;10.90;;;14.30;99.90;;;;;;5111293;28;20070;-66
2022/05/04 00:35:48;;;;;;;15.88;10.23;;;14.40;99.90;;;;;;5110723;28;20466;-66
2022/05/04 00:38:14;;;;;;;11.43;9.52;;;14.40;99.90;;;;;;5112584;28;20031;-66
2022/05/04 00:40:40;;;;;;;13.25;9.55;;;14.50;99.90;;;;;;5113578;28;20481;-66
2022/05/04 00:43:21;;;;;;;12.95;8.80;;;14.60;99.90;;;;;;5109756;28;20498;-66
2022/05/04 00:45:47;;;;;;;11.07;8.15;;;14.80;99.90;;;;;;5110334;28;20028;-66
2022/05/04 00:48:13;;;;;;;13.32;9.25;;;14.80;99.90;;;;;;5110319;28;20035;-67
2022/05/04 00:50:39;;;;;;;12.45;8.00;;;14.90;99.90;;;;;;5110457;28;20032;-66
2022/05/04 00:53:05;;;;;;;15.23;9.00;;;14.90;99.90;;;;;;5113458;28;20486;-66
2022/05/04 00:55:32;;;;;;;12.93;8.18;;;15.00;99.90;;;;;;5111073;28;20032;-67
2022/05/04 01:00:45;;;;;;;13.98;9.55;;;14.80;99.90;;;;;;5110298;28;20046;-67
2022/05/04 01:03:10;;;;;;;13.98;9.18;;;14.80;99.90;;;;;;5109819;28;20461;-67
2022/05/04 01:05:36;;;;;;;13.93;9.80;;;14.70;99.90;;;;;;5109886;28;20023;-66
2022/05/04 01:08:02;;;;;;;13.98;9.57;;;14.50;99.90;;;;;;5113865;28;20066;-66
2022/05/04 01:10:28;;;;;;;13.15;9.77;;;14.20;99.90;;;;;;5108710;28;20371;-67
2022/05/04 01:12:54;;;;;;;14.20;9.55;;;14.10;99.90;;;;;;5109727;28;20292;-67
2022/05/04 01:15:21;;;;;;;14.40;9.25;;;14.10;99.90;;;;;;5109697;28;20027;-66
2022/05/04 01:17:48;;;;;;;14.82;9.80;;;14.20;99.90;;;;;;5109842;28;20471;-67
2022/05/04 01:20:15;;;;;;;12.90;9.10;;;14.30;99.90;;;;;;5112236;28;20035;-67
2022/05/04 01:22:41;;;;;;;13.63;9.60;;;14.50;99.90;;;;;;5110781;28;20043;-66
2022/05/04 01:25:07;;;;;;;15.60;9.68;;;14.60;99.90;;;;;;5109485;28;20076;-66
2022/05/04 01:27:33;;;;;;;16.20;9.32;;;14.60;99.90;;;;;;5108958;28;20023;-67
2022/05/04 01:30:00;;;;;;;14.27;9.85;;;14.60;99.90;;;;;;5109790;28;20098;-66
2022/05/04 01:32:26;;;;;;;14.68;9.80;;;14.80;99.90;;;;;;5110967;28;20540;-67
2022/05/04 01:34:52;;;;;;;17.52;10.23;;;14.80;99.90;;;;;;5111984;28;20479;-66
2022/05/04 01:37:18;;;;;;;14.32;10.60;;;14.80;99.90;;;;;;5109112;28;20012;-66
2022/05/04 01:39:44;;;;;;;14.30;10.35;;;14.70;99.90;;;;;;5109022;28;20027;-66
2022/05/04 01:42:13;;;;;;;14.70;9.77;;;14.70;99.90;;;;;;5108492;28;20494;-67
2022/05/04 01:44:40;;;;;;;14.75;10.32;;;14.80;99.90;;;;;;5109767;28;20043;-66
2022/05/04 01:47:07;;;;;;;14.13;11.07;;;14.70;99.90;;;;;;5112337;28;20498;-66
2022/05/04 01:49:33;;;;;;;13.25;11.07;;;14.80;99.90;;;;;;5109876;28;20030;-66
2022/05/04 01:51:59;;;;;;;15.88;10.90;;;14.70;99.90;;;;;;5109358;28;20024;-66
2022/05/04 01:54:25;;;;;;;17.13;11.77;;;14.60;99.90;;;;;;5108521;28;20032;-66
2022/05/04 01:56:51;;;;;;;14.02;11.25;;;14.70;99.90;;;;;;5109621;28;20024;-66
2022/05/04 01:59:17;;;;;;;14.25;11.02;;;14.70;99.90;;;;;;5111314;28;20034;-66
2022/05/04 02:01:43;;;;;;;16.45;11.38;;;14.70;99.90;;;;;;5110098;28;20081;-66
2022/05/04 02:04:09;;;;;;;17.25;12.23;;;14.70;99.90;;;;;;5108772;28;20119;-66
2022/05/04 02:06:38;;;;;;;14.98;11.15;;;14.60;99.90;;;;;;5108696;28;20068;-67
2022/05/04 02:09:04;;;;;;;15.68;11.52;;;14.60;99.90;;;;;;5108448;28;20659;-67
2022/05/04 02:11:32;;;;;;;14.70;10.55;;;14.60;99.90;;;;;;5109808;28;20460;-67
2022/05/04 02:13:59;;;;;;;14.73;10.45;;;14.60;99.90;;;;;;5112478;28;20099;-66
2022/05/04 02:16:25;;;;;;;14.38;10.02;;;14.60;99.90;;;;;;5108855;28;20394;-67
2022/05/04 02:18:51;;;;;;;14.25;10.88;;;14.60;99.90;;;;;;5108549;28;20020;-66
2022/05/04 02:21:17;;;;;;;14.60;11.07;;;14.50;99.90;;;;;;5108481;28;20108;-67
2022/05/04 02:23:43;;;;;;;13.25;10.23;;;14.50;99.90;;;;;;5108109;28;20028;-66
2022/05/04 02:26:09;;;;;;;14.82;10.50;;;14.50;99.90;;;;;;5111553;28;20027;-67
2022/05/04 02:28:35;;;;;;;13.23;10.32;;;14.40;99.90;;;;;;5109518;28;20617;-66
2022/05/04 02:31:01;;;;;;;15.52;10.52;;;14.40;99.90;;;;;;5108626;28;20043;-66
2022/05/04 02:33:27;;;;;;;12.95;10.38;;;14.50;99.90;;;;;;5108291;28;20062;-67
2022/05/04 02:38:37;;;;;;;15.15;11.15;;;14.40;99.90;;;;;;5092962;28;20562;-66
2022/05/04 02:41:03;;;;;;;13.95;10.73;;;14.50;99.90;;;;;;5112161;28;20036;-66
2022/05/04 02:43:28;;;;;;;16.27;10.50;;;14.50;99.90;;;;;;5108705;28;20421;-67
2022/05/04 02:45:55;;;;;;;12.25;10.30;;;14.50;99.90;;;;;;5108634;28;20072;-66
2022/05/04 02:48:21;;;;;;;12.80;10.07;;;14.40;99.90;;;;;;5108188;28;20038;-66
2022/05/04 02:50:47;;;;;;;13.85;9.80;;;14.50;99.90;;;;;;5108335;28;20017;-67
2022/05/04 02:53:12;;;;;;;14.50;10.52;;;14.50;99.90;;;;;;5110871;28;20062;-66
2022/05/04 02:55:38;;;;;;;14.73;10.48;;;14.40;99.90;;;;;;5112548;28;20051;-67
2022/05/04 02:58:04;;;;;;;12.40;10.52;;;14.40;99.90;;;;;;5112669;28;20063;-67
2022/05/04 03:00:30;;;;;;;14.15;10.57;;;14.40;99.90;;;;;;5112056;28;20023;-66
2022/05/04 03:02:56;;;;;;;12.98;9.52;;;14.50;99.90;;;;;;5112602;28;20038;-66
2022/05/04 03:05:24;;;;;;;14.27;10.05;;;14.50;99.90;;;;;;5114097;28;20028;-66
2022/05/04 03:07:50;;;;;;;13.30;10.70;;;14.40;99.90;;;;;;5114158;28;20035;-66
2022/05/04 03:10:16;;;;;;;12.98;9.77;;;14.50;99.90;;;;;;5112886;28;20378;-67
2022/05/04 03:12:42;;;;;;;14.15;10.98;;;14.40;99.90;;;;;;5112125;28;20125;-66
2022/05/04 03:15:09;;;;;;;13.98;10.32;;;14.30;99.90;;;;;;5112263;28;20020;-66
2022/05/04 03:17:35;;;;;;;13.80;10.10;;;14.30;99.90;;;;;;5112311;28;20023;-66
2022/05/04 03:20:01;;;;;;;13.90;9.70;;;14.30;99.90;;;;;;5111681;28;20043;-66
2022/05/04 03:22:27;;;;;;;14.95;9.52;;;14.30;99.90;;;;;;5112025;28;20071;-66
2022/05/04 03:24:53;;;;;;;12.43;10.07;;;14.30;99.90;;;;;;5111768;28;20022;-67
2022/05/04 03:27:19;;;;;;;13.40;10.18;;;14.30;99.90;;;;;;5111653;28;20110;-66
2022/05/04 03:29:45;;;;;;;12.73;10.25;;;14.30;99.90;;;;;;5112254;28;20024;-66
2022/05/04 03:32:10;;;;;;;12.68;9.65;;;14.30;99.90;;;;;;5114522;28;20466;-66
2022/05/04 03:34:37;;;;;;;13.70;10.23;;;14.30;99.90;;;;;;5114291;28;20382;-66
2022/05/04 03:37:04;;;;;;;13.45;10.00;;;14.20;99.90;;;;;;5111106;28;20111;-66
2022/05/04 03:39:30;;;;;;;14.10;10.07;;;14.20;99.90;;;;;;5111622;28;20030;-66
2022/05/04 03:41:56;;;;;;;12.23;9.55;;;14.20;99.90;;;;;;5111634;28;20064;-66
2022/05/04 03:44:22;;;;;;;14.13;10.10;;;14.20;99.90;;;;;;5113434;28;20031;-67
2022/05/04 03:46:52;;;;;;;11.93;9.00;;;14.10;99.90;;;;;;5113278;28;20031;-66
2022/05/04 03:49:22;;;;;;;13.85;9.65;;;14.20;99.90;;;;;;5112143;28;20041;-66
2022/05/04 03:51:48;;;;;;;11.57;9.40;;;14.20;99.90;;;;;;5110810;28;20028;-66
2022/05/04 03:54:14;;;;;;;12.68;8.82;;;14.10;99.90;;;;;;5111680;28;20023;-66
2022/05/04 03:56:41;;;;;;;11.20;9.38;;;14.10;99.90;;;;;;5111432;28;20504;-66
2022/05/04 03:59:07;;;;;;;11.70;8.63;;;14.20;99.90;;;;;;5114923;28;20035;-66
2022/05/04 04:01:33;;;;;;;11.70;8.98;;;14.20;99.90;;;;;;5112231;28;20020;-66
2022/05/04 04:03:59;;;;;;;14.52;9.18;;;14.20;99.90;;;;;;5111300;28;20080;-66
2022/05/04 04:06:26;;;;;;;13.02;9.68;;;14.00;99.90;;;;;;5110678;28;20040;-66
2022/05/04 04:08:52;;;;;;;11.63;8.82;;;14.00;99.90;;;;;;5111172;28;20016;-66
2022/05/04 04:11:19;;;;;;;13.85;8.90;;;14.10;99.90;;;;;;5112612;28;20030;-66
2022/05/04 04:13:45;;;;;;;13.57;9.40;;;13.90;99.90;;;;;;5112784;28;20440;-67
2022/05/04 04:16:11;;;;;;;12.07;9.75;;;13.90;99.90;;;;;;5110683;28;20039;-66
2022/05/04 04:18:36;;;;;;;12.57;9.23;;;13.90;99.90;;;;;;5110773;28;20026;-69
2022/05/04 04:23:47;;;;;;;13.80;8.88;;;14.00;99.90;;;;;;5096761;28;20051;-69
2022/05/04 04:26:14;;;;;;;13.95;9.65;;;14.00;99.90;;;;;;5111891;28;20406;-69
2022/05/04 04:28:40;;;;;;;17.67;9.45;;;13.90;99.90;;;;;;5112084;27;20030;-69
2022/05/04 04:31:10;;;;;;;15.10;9.93;;;13.90;99.90;;;;;;5110805;28;20507;-68
2022/05/04 04:33:36;;;;;;;11.68;9.55;;;13.80;99.90;;;;;;5110675;28;20020;-69
2022/05/04 04:36:03;;;;;;;13.75;9.82;;;13.70;99.90;;;;;;5110365;28;20027;-69
2022/05/04 04:38:29;;;;;;;13.32;9.55;;;13.60;99.90;;;;;;5111358;28;20024;-69
2022/05/04 04:40:56;;;;;;;14.25;9.07;;;13.70;99.90;;;;;;5113558;28;20089;-69
2022/05/04 04:43:22;;;;;;;16.88;9.07;;;13.70;99.90;;;;;;5110366;28;20027;-69
2022/05/04 04:45:48;;;;;;;14.27;9.07;;;13.80;99.90;;;;;;5110601;27;20065;-69
2022/05/04 04:48:17;;;;;;;13.30;8.95;;;13.80;99.90;;;;;;5110187;28;20102;-69
2022/05/04 04:50:44;;;;;;;14.45;10.68;;;13.80;99.90;;;;;;5110386;28;20395;-69
2022/05/04 04:53:09;;;;;;;17.00;9.80;;;13.80;99.90;;;;;;5113017;28;20035;-69
2022/05/04 04:55:35;;;;;;;11.70;9.13;;;13.80;99.90;;;;;;5111051;28;20035;-69
2022/05/04 04:58:02;;;;;;;15.90;9.68;;;13.70;99.90;;;;;;5110593;27;20069;-69
2022/05/04 05:00:28;;;;;;;12.55;9.73;;;13.80;99.90;;;;;;5110076;28;20080;-69
2022/05/04 05:02:54;;;;;;;14.60;9.50;;;13.90;99.90;;;;;;5109455;28;20044;-69
2022/05/04 05:05:19;;;;;;;11.65;9.55;;;13.80;99.90;;;;;;5112636;28;20020;-69
2022/05/04 05:07:45;;;;;;;16.15;9.65;;;13.80;99.90;;;;;;5110338;28;20525;-69
2022/05/04 05:10:11;;;;;;;14.95;9.25;;;13.90;99.90;;;;;;5108504;28;20118;-69
2022/05/04 05:12:37;;;;;;;12.77;9.35;;;13.90;99.90;;;;;;5111511;28;20024;-69
2022/05/04 05:17:47;;;;;;;13.77;8.57;;;13.90;99.90;;;;;;5094716;28;20071;-69
2022/05/04 05:20:13;;;;;;;11.43;9.20;;;13.90;99.90;;;;;;5111893;28;20067;-69
2022/05/04 05:22:39;;;;;;;12.55;9.70;;;14.00;99.90;;;;;;5111308;28;20118;-69
2022/05/04 05:25:05;;;;;;;11.25;8.65;;;14.00;99.90;;;;;;5109610;28;20103;-69
2022/05/04 05:27:32;;;;;;;12.88;9.27;;;14.00;99.90;;;;;;5109287;28;20023;-69
2022/05/04 05:29:57;;;;;;;13.52;9.02;;;14.00;99.90;;;;;;5109834;28;20084;-69
2022/05/04 05:32:23;;;;;;;12.70;9.13;;;14.10;99.90;;;;;;5111016;28;20016;-69
2022/05/04 05:34:50;;;;;;;13.18;9.23;;;14.10;99.90;;;;;;5111330;28;20031;-69
2022/05/04 05:37:16;;;;;;;16.58;10.75;;;14.10;99.90;;;;;;5109291;28;20143;-68
2022/05/04 05:39:42;;;;;;;14.27;11.13;;;14.10;99.90;;;;;;5109168;28;20502;-68
2022/05/04 05:42:09;;;;;;;16.02;11.45;;;13.90;99.90;;;;;;5109650;28;20474;-68
2022/05/04 05:44:35;;;;;;;13.93;11.82;;;13.80;99.90;;;;;;5109985;27;20046;-68
2022/05/04 05:47:01;;;;;;;15.65;11.32;;;13.80;99.90;;;;;;5107889;28;20549;-68
2022/05/04 05:49:28;;;;;;;16.27;12.15;;;13.80;99.90;;;;;;5109289;28;20108;-68
2022/05/04 05:51:54;;;;;;;16.40;11.85;;;13.80;99.90;;;;;;5107900;28;20028;-68
2022/05/04 05:54:19;;;;;;;16.95;10.77;;;13.70;99.90;;;;;;5109246;28;20034;-68
2022/05/04 05:56:45;;;;;;;13.02;11.15;;;13.70;99.90;;;;;;5109073;28;20028;-68
2022/05/04 05:59:12;;;;;;;16.08;11.43;;;13.90;99.90;;;;;;5111541;28;20076;-68
2022/05/04 06:01:38;;;;;;;17.75;11.82;;;14.00;99.90;;;;;;5111057;28;20035;-68
2022/05/04 06:04:04;;;;;;;17.13;11.93;;;14.10;99.90;;;;;;5108602;28;20040;-68
2022/05/04 06:06:30;;;;;;;16.98;12.25;;;14.20;99.90;;;;;;5108853;27;20085;-68
2022/05/04 06:08:56;;;;;;;18.90;12.43;;;14.40;99.90;;;;;;5109073;28;20486;-68
2022/05/04 06:11:22;;;;;;;18.25;12.00;;;14.50;99.90;;;;;;5111241;28;20024;-68
2022/05/04 06:13:51;;;;;;;18.23;12.10;;;14.70;99.90;;;;;;5110577;28;20055;-68
2022/05/04 06:16:17;;;;;;;18.45;11.90;;;14.90;99.90;;;;;;5108101;28;20026;-71
2022/05/04 06:18:43;;;;;;;15.43;11.75;;;15.10;99.90;;;;;;5108455;28;20024;-71
2022/05/04 06:21:08;;;;;;;16.08;11.80;;;15.10;99.90;;;;;;5108846;28;20044;-70
2022/05/04 06:23:34;;;;;;;16.20;12.50;;;15.20;99.90;;;;;;5106413;28;20082;-71
2022/05/04 06:26:00;;;;;;;16.08;12.10;;;15.30;99.90;;;;;;5110809;28;20118;-70
2022/05/04 06:28:26;;;;;;;19.13;11.55;;;15.40;99.90;;;;;;5107828;28;20122;-70
2022/05/04 06:36:19;;;;;;;16.73;12.18;;;15.80;99.90;;;;;;5108446;28;20035;-70
2022/05/04 06:38:45;;;;;;;14.68;10.80;;;15.90;99.90;;;;;;5108413;28;20024;-69
2022/05/04 06:41:11;;;;;;;14.43;9.95;;;15.90;99.90;;;;;;5110786;28;20085;-70
2022/05/04 06:43:36;;;;;;;17.10;10.50;;;16.10;99.90;;;;;;5108868;28;20043;-70
2022/05/04 06:46:02;;;;;;;18.58;11.40;;;16.10;99.90;;;;;;5107743;28;20039;-70
2022/05/04 06:48:28;;;;;;;20.10;11.73;;;16.20;99.90;;;;;;5107784;28;20039;-70
2022/05/04 06:50:54;;;;;;;16.58;11.98;;;16.30;99.90;;;;;;5108779;28;20015;-70
2022/05/04 06:53:19;;;;;;;15.48;11.93;;;16.30;99.90;;;;;;5110960;28;20053;-70
2022/05/04 06:55:45;;;;;;;23.00;10.73;;;16.30;99.90;;;;;;5110855;28;20015;-70
2022/05/04 06:58:11;;;;;;;17.08;11.27;;;16.30;99.90;;;;;;5107831;28;20063;-69
2022/05/04 07:00:36;;;;;;;17.38;11.13;;;16.30;99.90;;;;;;5107979;28;20069;-71
2022/05/04 07:03:02;;;;;;;16.30;11.93;;;16.40;99.90;;;;;;5108378;28;20084;-69
2022/05/04 07:05:28;;;;;;;19.17;12.38;;;16.30;99.90;;;;;;5109231;28;20518;-70
2022/05/04 07:07:54;;;;;;;15.30;12.98;;;16.40;99.90;;;;;;5110635;28;20031;-70
2022/05/04 07:10:20;;;;;;;17.42;12.25;;;16.30;99.90;;;;;;5109545;28;20028;-78
2022/05/04 07:12:45;;;;;;;17.75;12.43;;;16.40;99.90;;;;;;5108040;28;20084;-75
2022/05/04 07:15:11;;;;;;;19.75;11.60;;;16.40;99.90;;;;;;5107774;28;20024;-74
2022/05/04 07:17:37;;;;;;;20.15;13.40;;;16.50;99.90;;;;;;5107828;28;20394;-72
2022/05/04 07:20:03;;;;;;;16.77;12.15;;;16.50;99.90;;;;;;5111110;28;20027;-72
2022/05/04 07:22:29;;;;;;;18.52;12.10;;;16.60;99.90;;;;;;5107733;28;20035;-72
2022/05/04 07:24:55;;;;;;;18.02;12.48;;;16.60;99.90;;;;;;5107659;28;20480;-72
2022/05/04 07:27:21;;;;;;;16.25;11.93;;;16.60;99.90;;;;;;5107751;28;20467;-72
2022/05/04 07:29:47;;;;;;;16.60;12.45;;;16.50;99.90;;;;;;5107688;28;20039;-71
2022/05/04 07:32:13;;;;;;;18.30;13.20;;;16.60;99.90;;;;;;5110318;28;20038;-74
2022/05/04 07:34:40;;;;;;;19.95;12.88;;;16.70;99.90;;;;;;5109206;28;20478;-74
2022/05/04 07:37:06;;;;;;;16.60;11.93;;;16.70;99.90;;;;;;5107561;28;20085;-74
2022/05/04 07:42:21;;;;;;;18.25;11.38;;;16.70;99.90;;;;;;5111962;28;20413;-71
2022/05/04 07:44:48;;;;;;;20.27;12.68;;;16.80;99.90;;;;;;5110963;28;20035;-71
2022/05/04 07:47:13;;;;;;;17.15;11.98;;;17.00;99.90;;;;;;5113810;28;20432;-71
2022/05/04 07:49:40;;;;;;;18.65;12.32;;;17.20;99.90;;;;;;5112628;28;20032;-72
2022/05/04 07:52:06;;;;;;;13.88;11.10;;;17.40;99.90;;;;;;5111678;28;20022;-71
2022/05/04 07:54:32;;;;;;;14.07;11.45;;;17.40;99.90;;;;;;5111159;28;20031;-70
2022/05/04 07:56:58;;;;;;;15.35;11.25;;;17.50;99.90;;;;;;5108396;28;20028;-71
2022/05/04 07:59:24;;;;;;;17.23;11.00;;;17.50;99.90;;;;;;5106630;28;20067;-71
2022/05/04 08:04:34;;;;;;;14.05;10.27;;;17.70;99.90;;;;;;5108001;28;20134;-71
2022/05/04 08:07:01;;;;;;;16.45;10.63;;;17.70;99.90;;;;;;5100653;28;20081;-71
2022/05/04 08:09:27;;;;;;;14.55;10.63;;;17.90;99.90;;;;;;5095287;28;20031;-70
2022/05/04 08:11:53;;;;;;;15.27;10.32;;;17.80;99.90;;;;;;5103089;28;20032;-70
2022/05/04 08:14:19;;;;;;;16.10;11.02;;;17.90;99.90;;;;;;5093045;28;20028;-71
2022/05/04 08:16:45;;;;;;;16.65;10.73;;;18.00;99.90;;;;;;5095201;28;20119;-71
2022/05/04 08:19:11;;;;;;;16.48;12.13;;;18.00;99.90;;;;;;5095902;28;20104;-71
2022/05/04 08:21:40;;;;;;;16.73;12.63;;;18.20;99.90;;;;;;5102590;28;20085;-73
2022/05/04 08:24:06;;;;;;;18.52;11.82;;;18.20;99.90;;;;;;5097236;28;20499;-72
2022/05/04 08:26:32;;;;;;;15.65;12.00;;;18.30;99.90;;;;;;5090517;28;20035;-71
2022/05/04 08:28:58;;;;;;;17.92;11.60;;;18.50;99.90;;;;;;5095367;28;20125;-71
2022/05/04 08:31:24;;;;;;;19.30;10.73;;;18.50;99.90;;;;;;5093626;28;20024;-70
2022/05/04 08:33:51;;;;;;;20.15;11.60;;;18.70;99.90;;;;;;5096235;28;20078;-71
2022/05/04 08:36:17;;;;;;;18.55;11.30;;;18.70;99.90;;;;;;5102941;28;20269;-71
2022/05/04 08:38:43;;;;;;;17.52;11.02;;;18.70;99.90;;;;;;5106555;28;20399;-71
2022/05/04 08:41:09;;;;;;;20.08;12.02;;;18.90;99.90;;;;;;5092573;27;20028;-71
2022/05/04 08:43:35;;;;;;;18.52;11.45;;;18.90;99.90;;;;;;5095966;28;20076;-71
2022/05/04 08:46:03;;;;;;;17.85;11.90;;;19.00;99.90;;;;;;5096862;28;20578;-71
2022/05/04 08:48:32;;;;;;;17.67;11.27;;;19.00;99.90;;;;;;5103722;28;20050;-71
2022/05/04 08:51:09;;;;;;;16.30;11.13;;;19.00;99.90;;;;;;5093030;28;20023;-72
2022/05/04 08:53:36;;;;;;;16.83;11.25;;;19.10;99.90;;;;;;5091398;27;20038;-71
2022/05/04 08:56:02;;;;;;;19.95;10.57;;;19.00;99.90;;;;;;5105916;28;20085;-72
2022/05/04 08:58:28;;;;;;;14.30;10.13;;;19.00;99.90;;;;;;5094971;28;20028;-72
2022/05/04 09:00:54;;;;;;;15.80;10.52;;;19.10;99.90;;;;;;5094638;28;20328;-71
2022/05/04 09:03:21;;;;;;;17.35;10.77;;;19.00;99.90;;;;;;5095390;28;20038;-71
2022/05/04 09:05:48;;;;;;;13.02;10.57;;;19.00;99.90;;;;;;5091667;28;20526;-71
2022/05/04 09:08:14;;;;;;;16.75;10.95;;;19.00;99.90;;;;;;5092019;28;20621;-71
2022/05/04 09:10:44;;;;;;;16.48;11.20;;;18.80;99.90;;;;;;5104731;28;20035;-71
2022/05/04 09:13:10;;;;;;;19.30;11.23;;;18.80;99.90;;;;;;5104988;28;20023;-71
2022/05/04 09:15:40;;;;;;;14.02;9.73;;;19.00;99.90;;;;;;5105673;28;20110;-71
2022/05/04 09:18:08;;;;;;;14.48;9.48;;;19.10;99.90;;;;;;5097973;28;20024;-71
2022/05/04 09:20:53;;;;;;;18.48;11.10;;;19.10;99.90;;;;;;5116313;27;20040;-71
2022/05/04 09:23:20;;;;;;;17.42;11.15;;;19.20;99.90;;;;;;5126007;27;20497;-71
2022/05/04 09:25:51;;;;;;;12.88;9.68;;;19.10;99.90;;;;;;5124611;27;20042;-71
2022/05/04 09:28:16;;;;;;;14.88;10.10;;;19.20;99.90;;;;;;5116236;27;20390;-71
2022/05/04 09:30:50;;;;;;;12.90;8.35;;;19.20;99.90;;;;;;5113581;27;20027;-71
2022/05/04 09:33:21;;;;;;;11.43;8.55;;;19.20;99.90;;;;;;5113700;27;20416;-71
2022/05/04 09:35:48;;;;;;;14.57;8.77;;;19.20;99.90;;;;;;5111336;27;20108;-71
2022/05/04 09:46:42;;;;;;;12.57;8.73;;;19.30;99.90;;;;;;5116324;27;20034;-71
2022/05/04 09:49:13;;;;;;;10.77;7.38;;;19.40;99.90;;;;;;5113171;27;20039;-71
2022/05/04 09:51:50;;;;;;;9.20;6.93;;;19.70;99.90;;;;;;5109061;28;20020;-71
2022/05/04 09:54:26;;;;;;;8.73;5.93;;;19.90;99.90;;;;;;5108294;28;20070;-73
2022/05/04 09:57:03;;;;;;;10.65;6.53;;;20.00;99.90;;;;;;5112517;27;20499;-73
2022/05/04 09:59:34;;;;;;;9.27;6.32;;;20.10;99.90;;;;;;5109799;28;20032;-69
2022/05/04 10:02:09;;;;;;;11.88;7.03;;;20.10;99.90;;;;;;5111661;28;20106;-71
2022/05/04 10:04:36;;;;;;;12.60;6.57;;;20.30;99.90;;;;;;5110988;28;20545;-71
2022/05/04 10:07:03;;;;;;;11.48;6.30;;;20.30;99.90;;;;;;5108256;28;20035;-71
2022/05/04 10:09:29;;;;;;;8.52;6.22;;;20.40;99.90;;;;;;5107804;28;20443;-71
2022/05/04 10:11:58;;;;;;;8.60;6.25;;;20.40;99.90;;;;;;5107652;28;20032;-72
2022/05/04 10:14:28;;;;;;;10.88;6.50;;;20.40;99.90;;;;;;5109571;28;20107;-72
2022/05/04 10:17:03;;;;;;;9.25;5.97;;;20.20;99.90;;;;;;5106899;28;20055;-72
2022/05/04 10:19:38;;;;;;;9.00;6.13;;;20.20;99.90;;;;;;5107329;28;20031;-71
2022/05/04 10:22:08;;;;;;;10.80;5.90;;;20.20;99.90;;;;;;5104543;28;20039;-72
2022/05/04 10:24:35;;;;;;;12.18;5.90;;;20.40;99.90;;;;;;5109135;28;20046;-73
2022/05/04 10:27:17;;;;;;;9.80;5.85;;;20.50;99.20;;;;;;5106769;28;20043;-75
2022/05/04 10:32:41;;;;;;;8.52;5.30;;;20.70;99.00;;;;;;5108044;28;20055;-72
2022/05/04 10:35:30;;;;;;;9.23;4.78;;;20.80;98.40;;;;;;5106610;28;20124;-73
2022/05/04 10:37:57;;;;;;;9.15;4.68;;;21.00;98.20;;;;;;5109821;28;20059;-72
2022/05/04 10:40:45;;;;;;;7.03;4.85;;;20.90;98.40;;;;;;5108141;28;20027;-72
2022/05/04 10:43:17;;;;;;;9.88;4.47;;;21.00;98.10;;;;;;5107377;28;20483;-71
2022/05/04 10:45:51;;;;;;;8.73;4.70;;;21.10;98.40;;;;;;5107786;28;20493;-72
2022/05/04 10:48:19;;;;;;;9.52;5.03;;;21.20;98.80;;;;;;5107576;28;20103;-70
2022/05/04 10:51:03;;;;;;;8.77;4.80;;;21.30;98.40;;;;;;5107788;28;20032;-70
2022/05/04 10:53:29;;;;;;;8.50;5.05;;;21.30;98.40;;;;;;5108350;28;20060;-69
2022/05/04 10:56:02;;;;;;;12.15;5.32;;;21.40;97.50;;;;;;5109661;28;20060;-69
2022/05/04 10:58:45;;;;;;;8.38;4.45;;;21.50;98.10;;;;;;5107983;28;20035;-69
2022/05/04 11:01:22;;;;;;;9.30;4.60;;;21.50;97.50;;;;;;5107193;28;20371;-68
2022/05/04 11:03:54;;;;;;;8.40;4.78;;;21.40;95.50;;;;;;5108514;28;20854;-68
2022/05/04 11:06:27;;;;;;;8.23;4.45;;;21.50;95.30;;;;;;5106257;28;20094;-69
2022/05/04 11:08:56;;;;;;;7.80;4.10;;;21.60;93.30;;;;;;5106339;28;20110;-69
2022/05/04 11:11:26;;;;;;;8.15;4.90;;;21.60;94.00;;;;;;5109613;28;20340;-69
2022/05/04 11:13:52;;;;;;;6.50;4.47;;;21.80;93.80;;;;;;5109699;28;20081;-69
2022/05/04 11:16:23;;;;;;;7.13;3.90;;;21.80;93.40;;;;;;5109456;28;20027;-68
2022/05/04 11:18:49;;;;;;;9.70;3.92;;;21.80;92.60;;;;;;5111447;27;20107;-68
2022/05/04 11:21:16;;;;;;;7.45;4.05;;;21.80;91.60;;;;;;5110474;28;20079;-69
2022/05/04 11:23:46;;;;;;;8.23;4.25;;;21.90;91.50;;;;;;5111306;28;20040;-69
2022/05/04 11:26:18;;;;;;;6.90;3.95;;;21.90;92.10;;;;;;5113455;28;20106;-69
2022/05/04 11:28:44;;;;;;;6.53;3.88;;;22.00;90.00;;;;;;5113747;28;20020;-67
2022/05/04 11:31:11;;;;;;;6.88;3.80;;;22.00;86.70;;;;;;5110822;28;20379;-68
2022/05/04 11:33:37;;;;;;;5.78;3.60;;;22.20;88.60;;;;;;5111069;28;20024;-68
2022/05/04 11:36:06;;;;;;;10.02;3.85;;;22.30;88.80;;;;;;5110362;28;20398;-70
2022/05/04 11:38:31;;;;;;;5.70;3.65;;;22.50;87.10;;;;;;5111815;28;20142;-69
2022/05/04 11:40:57;;;;;;;6.53;3.70;;;22.10;86.50;;;;;;5114082;28;20102;-70
2022/05/04 11:43:34;;;;;;;8.07;3.50;;;22.10;87.10;;;;;;5111066;28;20065;-70
2022/05/04 11:46:07;;;;;;;6.32;3.33;;;22.30;86.60;;;;;;5109995;27;20522;-68
2022/05/04 11:48:35;;;;;;;6.40;3.67;;;22.40;86.90;;;;;;5107390;27;20035;-70
2022/05/04 11:51:01;;;;;;;6.78;3.80;;;22.50;89.60;;;;;;5103415;28;20040;-72
2022/05/04 11:53:27;;;;;;;6.20;3.70;;;22.40;86.50;;;;;;5108904;28;20123;-71
2022/05/04 11:55:53;;;;;;;6.78;3.70;;;22.30;87.40;;;;;;5110233;28;20137;-70
2022/05/04 11:58:18;;;;;;;6.72;3.25;;;22.50;84.90;;;;;;5107209;28;20032;-70
2022/05/04 12:00:44;;;;;;;7.93;3.08;;;22.50;87.00;;;;;;5105667;28;20030;-70
2022/05/04 12:03:11;;;;;;;6.47;3.55;;;22.70;83.20;;;;;;5108536;28;20042;-69
2022/05/04 12:05:38;;;;;;;6.72;3.22;;;22.80;81.70;;;;;;5106235;28;20028;-69
2022/05/04 12:08:06;;;;;;;6.53;3.15;;;22.90;84.40;;;;;;5105157;28;20501;-70
2022/05/04 12:10:33;;;;;;;7.53;3.53;;;22.80;79.90;;;;;;5109773;28;20027;-69
2022/05/04 12:13:01;;;;;;;6.13;3.25;;;22.50;79.80;;;;;;5108470;27;20188;-72
2022/05/04 12:15:28;;;;;;;6.63;3.58;;;22.50;80.00;;;;;;5109192;28;20517;-69
2022/05/04 12:18:02;;;;;;;4.72;2.65;;;22.60;80.10;;;;;;5108444;28;20032;-70
2022/05/04 12:20:29;;;;;;;5.38;3.00;;;22.60;77.10;;;;;;5108414;28;20538;-70
2022/05/04 12:22:58;;;;;;;4.75;2.60;;;22.50;78.50;;;;;;5110484;28;20058;-69
2022/05/04 12:25:25;;;;;;;7.88;3.47;;;22.60;77.80;;;;;;5095929;27;20070;-70
2022/05/04 12:27:56;;;;;;;7.28;3.53;;;22.50;79.30;;;;;;5102514;28;20039;-71
2022/05/04 12:33:44;;;;;;;7.40;3.65;;;23.10;81.00;;;;;;5100629;28;20030;-70
2022/05/04 12:36:12;;;;;;;6.07;3.03;;;23.20;80.00;;;;;;5105155;28;20036;-69
2022/05/04 12:38:46;;;;;;;6.63;3.15;;;23.10;77.00;;;;;;5101930;28;20115;-69
2022/05/04 12:41:14;;;;;;;6.75;3.50;;;23.20;77.90;;;;;;5092746;28;20081;-70
2022/05/04 12:43:40;;;;;;;6.80;3.20;;;23.40;81.00;;;;;;5092013;28;20048;-69
2022/05/04 12:46:11;;;;;;;5.55;2.85;;;23.60;75.10;;;;;;5103035;28;20088;-71
2022/05/04 12:48:40;;;;;;;5.53;2.78;;;23.70;71.40;;;;;;5099478;27;20042;-71
2022/05/04 12:51:09;;;;;;;5.10;2.55;;;23.70;75.00;;;;;;5103666;28;20023;-71
2022/05/04 12:53:38;;;;;;;6.18;3.03;;;23.80;72.90;;;;;;5100786;27;20024;-70
2022/05/04 12:58:53;;;;;;;6.78;4.10;;;23.30;74.50;;;;;;5095793;28;20058;-70
2022/05/04 13:01:27;;;;;;;8.20;4.78;;;23.40;84.90;;;;;;5100712;28;20123;-71
2022/05/04 13:03:52;;;;;;;7.65;4.55;;;23.40;86.90;;;;;;5107444;27;20449;-70
2022/05/04 13:06:21;;;;;;;8.60;4.32;;;23.80;87.70;;;;;;5097564;27;20035;-72
2022/05/04 13:08:48;;;;;;;8.90;3.85;;;23.90;83.60;;;;;;5098901;28;20024;-70
2022/05/04 13:11:18;;;;;;;7.18;3.05;;;24.10;80.60;;;;;;5102409;28;20031;-70
2022/05/04 13:13:45;;;;;;;5.93;3.28;;;24.20;75.50;;;;;;5104660;27;20159;-70